Time;durP1;ratioP1;P1;durP2;ratioP2;P2;SDS_P1;SDS_P2;PMS_P1;PMS_P2;Temp;Humidity;BMP_temperature;BMP_pressure;BME280_temperature;BME280_humidity;BME280_pressure;Samples;Min_cycle;Max_cycle;Signal;HPM_P1;HPM_P2
2022/05/02 00:02:22;;;;;;;;;;;7.60;99.90;;;;;;5052111;28;20019;-79
2022/05/02 00:04:49;;;;;;;;;;;7.50;99.90;;;;;;5053184;28;19932;-79
2022/05/02 00:07:18;;;;;;;;;;;7.50;99.90;;;;;;5053368;28;20392;-79
2022/05/02 00:09:45;;;;;;;;;;;7.40;99.90;;;;;;5053720;28;19935;-79
2022/05/02 00:12:14;;;;;;;;;;;7.40;99.90;;;;;;5053277;28;19925;-79
2022/05/02 00:14:43;;;;;;;;;;;7.30;99.90;;;;;;5053515;28;20019;-79
2022/05/02 00:17:10;;;;;;;;;;;7.30;99.90;;;;;;5053014;28;20441;-79
2022/05/02 00:19:37;;;;;;;;;;;7.30;99.90;;;;;;5053360;28;20019;-79
2022/05/02 00:22:04;;;;;;;;;;;7.30;99.90;;;;;;5053968;28;19931;-79
2022/05/02 00:24:31;;;;;;;;;;;7.30;99.90;;;;;;5054014;28;20020;-79
2022/05/02 00:27:01;;;;;;;;;;;7.30;99.90;;;;;;5053867;28;20368;-79
2022/05/02 00:29:27;;;;;;;;;;;7.30;99.90;;;;;;5053686;28;20399;-80
2022/05/02 00:31:54;;;;;;;;;;;7.30;99.90;;;;;;5085413;28;20380;-79
2022/05/02 00:34:24;;;;;;;;;;;7.20;99.90;;;;;;5053507;28;19924;-79
2022/05/02 00:36:50;;;;;;;;;;;7.10;99.90;;;;;;5053749;28;19925;-79
2022/05/02 00:39:17;;;;;;;;;;;7.10;99.90;;;;;;5053401;28;19931;-79
2022/05/02 00:41:44;;;;;;;;;;;7.00;99.90;;;;;;5053777;28;19972;-79
2022/05/02 00:44:11;;;;;;;;;;;7.00;99.90;;;;;;5053415;28;20019;-79
2022/05/02 00:46:38;;;;;;;;;;;6.90;99.90;;;;;;5053435;28;19960;-79
2022/05/02 00:49:05;;;;;;;;;;;6.80;99.90;;;;;;5053233;28;19929;-78
2022/05/02 00:51:35;;;;;;;;;;;6.80;99.90;;;;;;5048865;28;19936;-79
2022/05/02 00:54:02;;;;;;;;;;;6.80;99.90;;;;;;5052433;28;20015;-80
2022/05/02 00:56:29;;;;;;;;;;;6.70;99.90;;;;;;5036531;28;19925;-79
2022/05/02 00:58:55;;;;;;;;;;;6.60;99.90;;;;;;5050411;28;19969;-79
2022/05/02 01:01:22;;;;;;;;;;;6.40;99.90;;;;;;5050357;28;19925;-79
2022/05/02 01:03:52;;;;;;;;;;;6.20;99.90;;;;;;5047923;28;19925;-79
2022/05/02 01:09:07;;;;;;;;;;;6.00;99.90;;;;;;5052789;28;20401;-78
2022/05/02 01:11:34;;;;;;;;;;;6.00;99.90;;;;;;5050114;28;20027;-78
2022/05/02 01:14:01;;;;;;;;;;;5.90;99.90;;;;;;5053120;28;19978;-79
2022/05/02 01:16:30;;;;;;;;;;;5.80;99.90;;;;;;5053302;28;19943;-79
2022/05/02 01:18:58;;;;;;;;;;;5.70;99.90;;;;;;5053163;28;19925;-79
2022/05/02 01:21:25;;;;;;;;;;;5.70;99.90;;;;;;5053419;28;19925;-79
2022/05/02 01:23:53;;;;;;;;;;;5.60;99.90;;;;;;5052671;28;20398;-79
2022/05/02 01:26:20;;;;;;;;;;;5.60;99.90;;;;;;5052204;28;19929;-79
2022/05/02 01:28:48;;;;;;;;;;;5.60;99.90;;;;;;5052577;28;19925;-78
2022/05/02 01:31:15;;;;;;;;;;;5.60;99.90;;;;;;5052180;28;19931;-79
2022/05/02 01:33:42;;;;;;;;;;;5.60;99.90;;;;;;5052709;28;19933;-79
2022/05/02 01:36:09;;;;;;;;;;;5.50;99.90;;;;;;5051427;28;19925;-78
2022/05/02 01:38:36;;;;;;;;;;;5.50;99.90;;;;;;5052912;28;19967;-79
2022/05/02 01:41:03;;;;;;;;;;;5.40;99.90;;;;;;5050349;28;20027;-79
2022/05/02 01:43:31;;;;;;;;;;;5.40;99.90;;;;;;5052640;28;20008;-79
2022/05/02 01:45:58;;;;;;;;;;;5.30;99.90;;;;;;5049393;28;19931;-79
2022/05/02 01:48:25;;;;;;;;;;;5.10;99.90;;;;;;5052258;28;19925;-79
2022/05/02 01:50:52;;;;;;;;;;;5.00;99.90;;;;;;5051895;28;19931;-80
2022/05/02 01:53:19;;;;;;;;;;;5.00;99.90;;;;;;5052257;28;19924;-80
2022/05/02 01:55:46;;;;;;;;;;;5.00;99.90;;;;;;5052840;28;19928;-80
2022/05/02 01:58:12;;;;;;;;;;;5.00;99.90;;;;;;5052606;28;20024;-80
2022/05/02 02:00:39;;;;;;;;;;;4.90;99.90;;;;;;5052557;28;20347;-80
2022/05/02 02:03:06;;;;;;;;;;;4.90;99.90;;;;;;5052435;28;19939;-79
2022/05/02 02:05:48;;;;;;;;;;;4.90;99.90;;;;;;5052955;28;19931;-79
2022/05/02 02:08:21;;;;;;;;;;;4.80;99.90;;;;;;5048452;28;19934;-78
2022/05/02 02:10:48;;;;;;;;;;;4.80;99.90;;;;;;5055595;28;19925;-78
2022/05/02 02:13:20;;;;;;;;;;;4.80;99.90;;;;;;5055742;28;19955;-79
2022/05/02 02:15:47;;;;;;;;;;;4.80;99.90;;;;;;5054898;28;19931;-78
2022/05/02 02:18:14;;;;;;;;;;;4.70;99.90;;;;;;5051154;28;19947;-79
2022/05/02 02:20:43;;;;;;;;;;;4.70;99.90;;;;;;5042873;28;19929;-78
2022/05/02 02:23:12;;;;;;;;;;;4.60;99.90;;;;;;5055632;28;20020;-79
2022/05/02 02:25:41;;;;;;;;;;;4.50;99.90;;;;;;5066497;28;19924;-79
2022/05/02 02:28:15;;;;;;;;;;;4.60;99.90;;;;;;5076132;28;19925;-79
2022/05/02 02:30:44;;;;;;;;;;;4.80;99.90;;;;;;5059663;28;19983;-78
2022/05/02 02:33:10;;;;;;;;;;;4.70;99.90;;;;;;5056049;28;19916;-78
2022/05/02 02:35:37;;;;;;;;;;;4.70;99.90;;;;;;5055874;28;20023;-79
2022/05/02 02:38:04;;;;;;;;;;;4.60;99.90;;;;;;5088467;28;20008;-79
2022/05/02 02:40:31;;;;;;;;;;;4.60;99.90;;;;;;5055155;28;19978;-78
2022/05/02 02:42:57;;;;;;;;;;;4.60;99.90;;;;;;5055676;28;20368;-78
2022/05/02 02:45:24;;;;;;;;;;;4.60;99.90;;;;;;5056370;28;19929;-78
2022/05/02 02:47:51;;;;;;;;;;;4.60;99.90;;;;;;5055350;28;19932;-79
2022/05/02 02:50:18;;;;;;;;;;;4.50;99.90;;;;;;5055760;28;20339;-79
2022/05/02 02:52:45;;;;;;;;;;;4.50;99.90;;;;;;5054909;28;20399;-79
2022/05/02 02:55:11;;;;;;;;;;;4.50;99.90;;;;;;5055315;28;19925;-78
2022/05/02 02:57:38;;;;;;;;;;;4.50;99.90;;;;;;5054992;28;19925;-78
2022/05/02 03:00:07;;;;;;;;;;;4.50;99.90;;;;;;5054988;28;20553;-78
2022/05/02 03:02:38;;;;;;;;;;;4.50;99.90;;;;;;5055138;28;19931;-78
2022/05/02 03:08:07;;;;;;;;;;;4.40;99.90;;;;;;5052484;28;19925;-78
2022/05/02 03:10:34;;;;;;;;;;;4.50;99.90;;;;;;5040685;28;19982;-78
2022/05/02 03:13:00;;;;;;;;;;;4.50;99.90;;;;;;5053793;28;19967;-78
2022/05/02 03:15:27;;;;;;;;;;;4.60;99.90;;;;;;5054343;28;19925;-78
2022/05/02 03:17:54;;;;;;;;;;;4.50;99.90;;;;;;5054014;28;19929;-77
2022/05/02 03:20:20;;;;;;;;;;;4.50;99.90;;;;;;5051818;28;19968;-77
2022/05/02 03:22:52;;;;;;;;;;;4.50;99.90;;;;;;5054123;28;19925;-78
2022/05/02 03:25:19;;;;;;;;;;;4.40;99.90;;;;;;5047114;28;19939;-78
2022/05/02 03:27:45;;;;;;;;;;;4.30;99.90;;;;;;5048546;28;19931;-78
2022/05/02 03:30:12;;;;;;;;;;;4.20;99.90;;;;;;5054050;28;19960;-78
2022/05/02 03:32:39;;;;;;;;;;;4.10;99.90;;;;;;5052415;28;19931;-78
2022/05/02 03:35:09;;;;;;;;;;;4.00;99.90;;;;;;5062102;28;19928;-78
2022/05/02 03:37:36;;;;;;;;;;;3.90;99.90;;;;;;5054069;28;19928;-79
2022/05/02 03:40:03;;;;;;;;;;;3.80;99.90;;;;;;5062965;28;19980;-78
2022/05/02 03:42:30;;;;;;;;;;;3.70;99.90;;;;;;5052536;28;20035;-77
2022/05/02 03:44:57;;;;;;;;;;;3.70;99.90;;;;;;5053376;28;20007;-77
2022/05/02 03:47:23;;;;;;;;;;;3.70;99.90;;;;;;5053248;28;19979;-78
2022/05/02 03:49:50;;;;;;;;;;;3.80;99.90;;;;;;5053544;28;20012;-77
2022/05/02 03:52:16;;;;;;;;;;;3.90;99.90;;;;;;5038150;28;19951;-77
2022/05/02 03:54:43;;;;;;;;;;;3.90;99.90;;;;;;5050309;28;19925;-77
2022/05/02 03:57:11;;;;;;;;;;;3.90;99.90;;;;;;5053153;28;19925;-77
2022/05/02 03:59:39;;;;;;;;;;;3.90;99.90;;;;;;5061999;28;20563;-77
2022/05/02 04:02:05;;;;;;;;;;;3.90;99.90;;;;;;5059570;28;20011;-77
2022/05/02 04:04:32;;;;;;;;;;;3.90;99.90;;;;;;5061575;28;19924;-77
2022/05/02 04:06:59;;;;;;;;;;;3.90;99.90;;;;;;5057207;28;19974;-78
2022/05/02 04:09:26;;;;;;;;;;;3.90;99.90;;;;;;5054240;28;19979;-78
2022/05/02 04:11:53;;;;;;;;;;;3.90;99.90;;;;;;5052165;28;19925;-77
2022/05/02 04:14:19;;;;;;;;;;;3.90;99.90;;;;;;5053056;28;20011;-77
2022/05/02 04:16:46;;;;;;;;;;;3.90;99.90;;;;;;5059972;28;19928;-77
2022/05/02 04:19:13;;;;;;;;;;;4.00;99.90;;;;;;5055976;28;20379;-77
2022/05/02 04:21:40;;;;;;;;;;;4.00;99.90;;;;;;5056017;28;19931;-77
2022/05/02 04:24:06;;;;;;;;;;;4.10;99.90;;;;;;5061175;28;20016;-78
2022/05/02 04:26:38;;;;;;;;;;;4.10;99.90;;;;;;5051969;28;20316;-77
2022/05/02 04:29:05;;;;;;;;;;;4.20;99.90;;;;;;5050153;28;19971;-78
2022/05/02 04:31:32;;;;;;;;;;;4.20;99.90;;;;;;5084183;28;20007;-78
2022/05/02 04:33:59;;;;;;;;;;;4.20;99.90;;;;;;5053284;28;19947;-78
2022/05/02 04:36:36;;;;;;;;;;;4.20;99.90;;;;;;5053429;28;19947;-78
2022/05/02 04:39:02;;;;;;;;;;;4.20;99.90;;;;;;5052246;28;19924;-78
2022/05/02 04:41:29;;;;;;;;;;;4.20;99.90;;;;;;5052142;28;20419;-78
2022/05/02 04:43:58;;;;;;;;;;;4.20;99.90;;;;;;5051852;28;19925;-79
2022/05/02 04:46:26;;;;;;;;;;;4.30;99.90;;;;;;5052376;28;19931;-78
2022/05/02 04:49:15;;;;;;;;;;;4.40;99.90;;;;;;5052288;28;19974;-78
2022/05/02 04:51:42;;;;;;;;;;;4.50;99.90;;;;;;5052582;28;19925;-78
2022/05/02 04:54:11;;;;;;;;;;;4.60;99.90;;;;;;5052628;28;19924;-78
2022/05/02 04:56:38;;;;;;;;;;;4.70;99.90;;;;;;5053391;28;20008;-78
2022/05/02 04:59:05;;;;;;;;;;;4.90;99.90;;;;;;5050194;28;19976;-78
2022/05/02 05:01:31;;;;;;;;;;;5.00;99.90;;;;;;5044028;28;19940;-79
2022/05/02 05:03:58;;;;;;;;;;;5.20;99.90;;;;;;5047895;28;20522;-78
2022/05/02 05:06:25;;;;;;;;;;;5.30;99.90;;;;;;5047789;28;20295;-78
2022/05/02 05:08:52;;;;;;;;;;;5.50;99.90;;;;;;5051769;28;19925;-79
2022/05/02 05:11:40;;;;;;;;;;;5.60;99.90;;;;;;5052509;28;20032;-79
2022/05/02 05:17:14;;;;;;;;;;;6.00;99.90;;;;;;5047010;28;19925;-78
2022/05/02 05:19:40;;;;;;;;;;;6.20;99.90;;;;;;5046702;28;19924;-78
2022/05/02 05:22:26;;;;;;;;;;;6.50;99.90;;;;;;5051480;28;20355;-78
2022/05/02 05:25:02;;;;;;;;;;;6.70;99.90;;;;;;5056220;28;20007;-78
2022/05/02 05:27:46;;;;;;;;;;;7.10;99.90;;;;;;5053332;28;19924;-79
2022/05/02 05:30:17;;;;;;;;;;;7.70;99.90;;;;;;5043039;28;20375;-79
2022/05/02 05:32:49;;;;;;;;;;;8.00;99.90;;;;;;5050025;28;20377;-78
2022/05/02 05:35:22;;;;;;;;;;;8.10;99.90;;;;;;5045696;28;19925;-78
2022/05/02 05:37:50;;;;;;;;;;;8.00;99.90;;;;;;5060976;28;20359;-78
2022/05/02 05:40:37;;;;;;;;;;;8.10;99.90;;;;;;5047724;28;20000;-78
2022/05/02 05:43:22;;;;;;;;;;;8.40;99.90;;;;;;5049328;28;19925;-78
2022/05/02 05:45:52;;;;;;;;;;;9.30;99.90;;;;;;5052527;28;19924;-77
2022/05/02 05:48:37;;;;;;;;;;;10.20;99.90;;;;;;5055091;28;20023;-77
2022/05/02 05:51:14;;;;;;;;;;;11.30;99.90;;;;;;5053247;28;19924;-77
2022/05/02 05:53:47;;;;;;;;;;;12.40;99.90;;;;;;5049256;28;19933;-77
2022/05/02 05:56:17;;;;;;;;;;;13.40;99.90;;;;;;5052837;28;19929;-78
2022/05/02 05:58:57;;;;;;;;;;;14.20;99.90;;;;;;5046333;28;20016;-78
2022/05/02 06:01:44;;;;;;;;;;;15.10;99.90;;;;;;5054182;28;20011;-77
2022/05/02 06:04:12;;;;;;;;;;;16.00;99.90;;;;;;5054139;28;19925;-77
2022/05/02 06:06:39;;;;;;;;;;;16.70;99.90;;;;;;5054582;28;19933;-77
2022/05/02 06:09:10;;;;;;;;;;;17.30;99.90;;;;;;5053978;28;19925;-78
2022/05/02 06:11:39;;;;;;;;;;;18.00;99.90;;;;;;5054902;28;19924;-77
2022/05/02 06:14:06;;;;;;;;;;;18.40;99.90;;;;;;5052170;28;19972;-77
2022/05/02 06:19:28;;;;;;;;;;;18.70;99.90;;;;;;5045618;28;19924;-78
2022/05/02 06:21:55;;;;;;;;;;;19.00;99.90;;;;;;5049029;28;20019;-67
2022/05/02 06:24:31;;;;;;;;;;;18.70;99.90;;;;;;5047781;28;21705;-68
2022/05/02 06:26:59;;;;;;;;;;;18.50;99.90;;;;;;5051090;28;20368;-78
2022/05/02 06:29:26;;;;;;;;;;;18.60;99.90;;;;;;5052915;28;19925;-67
2022/05/02 06:31:54;;;;;;;;;;;18.70;99.90;;;;;;5044141;28;20462;-68
2022/05/02 06:34:23;;;;;;;;;;;18.90;99.90;;;;;;5047061;28;20329;-68
2022/05/02 06:36:59;;;;;;;;;;;19.10;99.90;;;;;;5051153;28;19925;-68
2022/05/02 06:39:45;;;;;;;;;;;19.70;99.90;;;;;;5039568;28;19943;-68
2022/05/02 06:42:18;;;;;;;;;;;19.40;99.90;;;;;;5043297;28;20303;-68
2022/05/02 06:44:47;;;;;;;;;;;19.50;99.90;;;;;;5045389;28;20387;-68
2022/05/02 06:47:36;;;;;;;;;;;19.80;99.90;;;;;;5047987;28;19987;-68
2022/05/02 06:50:05;;;;;;;;;;;19.90;99.90;;;;;;5045782;28;20020;-68
2022/05/02 06:52:32;;;;;;;;;;;19.90;99.90;;;;;;5047660;28;19924;-68
2022/05/02 06:54:59;;;;;;;;;;;20.30;99.90;;;;;;5048444;28;19939;-68
2022/05/02 06:57:34;;;;;;;;;;;20.30;99.90;;;;;;5047422;28;19956;-69
2022/05/02 07:00:01;;;;;;;;;;;20.00;99.90;;;;;;5044735;28;19936;-69
2022/05/02 07:02:56;;;;;;;;;;;19.70;99.90;;;;;;5048767;28;19925;-68
2022/05/02 07:05:41;;;;;;;;;;;19.60;99.90;;;;;;5049090;28;19929;-68
2022/05/02 07:08:08;;;;;;;;;;;19.30;99.90;;;;;;5041970;28;19925;-68
2022/05/02 07:10:36;;;;;;;;;;;19.10;99.90;;;;;;5049081;28;20051;-68
2022/05/02 07:13:29;;;;;;;;;;;19.00;99.90;;;;;;5052698;28;19929;-69
2022/05/02 07:16:09;;;;;;;;;;;18.70;99.90;;;;;;5048489;28;19928;-69
2022/05/02 07:18:39;;;;;;;;;;;18.80;99.90;;;;;;5049157;28;19924;-69
2022/05/02 07:21:25;;;;;;;;;;;18.60;99.90;;;;;;5048180;28;19960;-69
2022/05/02 07:23:58;;;;;;;;;;;18.70;99.90;;;;;;5046469;28;19933;-69
2022/05/02 07:26:26;;;;;;;;;;;18.50;99.90;;;;;;5042250;28;19925;-69
2022/05/02 07:28:55;;;;;;;;;;;18.70;99.90;;;;;;5052512;28;19971;-70
2022/05/02 07:31:23;;;;;;;;;;;18.80;99.90;;;;;;5049596;28;19925;-67
2022/05/02 07:33:53;;;;;;;;;;;19.00;99.90;;;;;;5049996;28;20991;-68
2022/05/02 07:36:22;;;;;;;;;;;19.00;99.90;;;;;;5045833;28;20063;-69
2022/05/02 07:38:59;;;;;;;;;;;18.80;99.90;;;;;;5049452;28;19951;-67
2022/05/02 07:41:26;;;;;;;;;;;18.10;99.90;;;;;;5048367;28;19979;-70
2022/05/02 07:43:52;;;;;;;;;;;17.20;99.90;;;;;;5049561;28;19925;-70
2022/05/02 07:46:23;;;;;;;;;;;17.00;99.90;;;;;;5041865;28;20455;-69
2022/05/02 07:48:51;;;;;;;;;;;17.20;99.90;;;;;;5043022;28;19978;-68
2022/05/02 07:51:19;;;;;;;;;;;17.60;99.90;;;;;;5046626;28;19924;-69
2022/05/02 07:53:46;;;;;;;;;;;17.70;99.90;;;;;;5047409;28;19925;-68
2022/05/02 07:56:13;;;;;;;;;;;18.10;99.90;;;;;;5073681;28;20023;-68
2022/05/02 07:58:40;;;;;;;;;;;18.10;99.90;;;;;;5046502;28;19939;-68
2022/05/02 08:01:07;;;;;;;;;;;17.90;99.90;;;;;;5045843;28;19947;-68
2022/05/02 08:03:34;;;;;;;;;;;17.60;99.90;;;;;;5040455;28;19929;-68
2022/05/02 08:06:19;;;;;;;;;;;17.20;99.90;;;;;;5042492;28;20008;-69
2022/05/02 08:08:52;;;;;;;;;;;17.50;99.90;;;;;;5042134;28;20003;-68
2022/05/02 08:11:22;;;;;;;;;;;18.10;99.90;;;;;;5047904;28;19931;-68
2022/05/02 08:14:09;;;;;;;;;;;18.50;99.90;;;;;;5044594;28;19933;-68
2022/05/02 08:16:45;;;;;;;;;;;18.50;99.90;;;;;;5034297;28;19928;-68
2022/05/02 08:19:15;;;;;;;;;;;18.60;99.90;;;;;;5049836;28;19925;-68
2022/05/02 08:21:45;;;;;;;;;;;19.20;99.90;;;;;;5048054;28;20032;-68
2022/05/02 08:27:15;;;;;;;;;;;20.20;99.90;;;;;;5045351;28;19931;-68
2022/05/02 08:29:45;;;;;;;;;;;20.30;99.90;;;;;;5044664;28;19925;-68
2022/05/02 08:32:30;;;;;;;;;;;19.60;99.90;;;;;;5047518;28;20019;-68
2022/05/02 08:34:57;;;;;;;;;;;19.40;99.90;;;;;;5049114;28;19925;-68
2022/05/02 08:37:45;;;;;;;;;;;19.40;99.90;;;;;;5043776;28;20672;-69
2022/05/02 08:40:17;;;;;;;;;;;19.50;99.90;;;;;;5048139;28;19986;-68
2022/05/02 08:42:54;;;;;;;;;;;19.50;99.90;;;;;;5046738;28;20403;-68
2022/05/02 08:45:40;;;;;;;;;;;19.30;99.90;;;;;;5048165;28;19940;-68
2022/05/02 08:48:16;;;;;;;;;;;19.20;99.90;;;;;;5046887;28;19955;-68
2022/05/02 08:51:01;;;;;;;;;;;19.10;99.90;;;;;;5049126;28;19925;-68
2022/05/02 08:53:47;;;;;;;;;;;19.10;99.90;;;;;;5043944;28;19951;-68
2022/05/02 08:56:20;;;;;;;;;;;18.90;99.90;;;;;;5037593;28;19940;-68
2022/05/02 08:59:05;;;;;;;;;;;18.80;99.90;;;;;;5038294;28;19924;-78
2022/05/02 09:01:38;;;;;;;;;;;18.90;99.90;;;;;;5046738;28;20011;-75
2022/05/02 09:04:07;;;;;;;;;;;19.30;99.90;;;;;;5048423;28;19925;-75
2022/05/02 09:06:43;;;;;;;;;;;19.20;99.90;;;;;;5049136;28;19932;-76
2022/05/02 09:09:23;;;;;;;;;;;19.20;99.90;;;;;;5047942;28;20015;-76
2022/05/02 09:11:52;;;;;;;;;;;19.80;99.90;;;;;;5044713;28;20542;-77
2022/05/02 09:14:26;;;;;;;;;;;19.90;99.90;;;;;;5042961;28;19929;-77
2022/05/02 09:17:05;;;;;;;;;;;20.10;99.90;;;;;;5045868;28;20271;-77
2022/05/02 09:19:32;;;;;;;;;;;20.50;99.90;;;;;;5082496;28;19975;-76
2022/05/02 09:21:59;;;;;;;;;;;21.10;99.90;;;;;;5050450;28;19972;-77
2022/05/02 09:24:25;;;;;;;;;;;21.50;99.90;;;;;;5054208;28;20375;-76
2022/05/02 09:27:05;;;;;;;;;;;21.70;99.90;;;;;;5053106;28;19925;-76
2022/05/02 09:29:50;;;;;;;;;;;21.50;99.90;;;;;;5053044;28;19925;-77
2022/05/02 09:32:18;;;;;;;;;;;21.70;99.90;;;;;;5053372;28;20015;-77
2022/05/02 09:34:56;;;;;;;;;;;22.40;99.90;;;;;;5054500;28;20015;-76
2022/05/02 09:37:43;;;;;;;;;;;23.30;99.90;;;;;;5048756;28;19924;-77
2022/05/02 09:40:12;;;;;;;;;;;24.20;99.90;;;;;;5054317;28;20401;-75
2022/05/02 09:42:56;;;;;;;;;;;24.60;99.90;;;;;;5053781;28;19970;-76
2022/05/02 09:51:45;;;;;;;;;;;23.90;99.90;;;;;;5052283;28;19928;-76
2022/05/02 09:54:11;;;;;;;;;;;23.80;99.90;;;;;;5060982;28;20376;-74
2022/05/02 09:56:43;;;;;;;;;;;23.80;99.90;;;;;;5053348;28;19929;-75
2022/05/02 09:59:23;;;;;;;;;;;24.70;99.90;;;;;;5048366;28;20393;-75
2022/05/02 10:02:09;;;;;;;;;;;25.30;99.90;;;;;;5051628;28;19929;-74
2022/05/02 10:04:55;;;;;;;;;;;25.30;99.00;;;;;;5046859;28;19925;-73
2022/05/02 10:07:23;;;;;;;;;;;24.50;99.90;;;;;;5041671;28;19929;-74
2022/05/02 10:10:01;;;;;;;;;;;24.10;99.60;;;;;;5049892;28;19935;-74
2022/05/02 10:12:40;;;;;;;;;;;23.60;99.40;;;;;;5050658;28;20027;-75
2022/05/02 10:15:16;;;;;;;;;;;23.10;99.60;;;;;;5051196;28;20217;-74
2022/05/02 10:17:53;;;;;;;;;;;22.70;99.90;;;;;;5050695;28;19924;-73
2022/05/02 10:20:20;;;;;;;;;;;23.00;99.50;;;;;;5048563;28;20032;-73
2022/05/02 10:22:47;;;;;;;;;;;22.80;99.90;;;;;;5053129;28;20542;-74
2022/05/02 10:25:14;;;;;;;;;;;22.30;99.90;;;;;;5053168;28;20008;-75
2022/05/02 10:27:50;;;;;;;;;;;22.30;99.90;;;;;;5052882;28;19931;-74
2022/05/02 10:30:18;;;;;;;;;;;22.30;99.90;;;;;;5046541;28;19931;-75
2022/05/02 10:32:44;;;;;;;;;;;22.70;99.90;;;;;;5051975;28;20400;-73
2022/05/02 10:35:15;;;;;;;;;;;22.70;99.90;;;;;;5051073;28;20008;-75
2022/05/02 10:37:46;;;;;;;;;;;23.00;99.90;;;;;;5043786;28;20011;-73
2022/05/02 10:40:14;;;;;;;;;;;22.70;99.90;;;;;;5049845;28;19925;-74
2022/05/02 10:43:07;;;;;;;;;;;22.50;99.90;;;;;;5047171;28;20387;-75
2022/05/02 10:45:36;;;;;;;;;;;23.50;99.90;;;;;;5045888;28;19931;-75
2022/05/02 10:48:18;;;;;;;;;;;24.40;99.90;;;;;;5046988;28;19924;-74
2022/05/02 10:50:52;;;;;;;;;;;24.60;99.90;;;;;;5051868;28;20011;-74
2022/05/02 10:53:38;;;;;;;;;;;24.30;98.50;;;;;;5052749;28;19933;-75
2022/05/02 10:56:05;;;;;;;;;;;24.50;99.00;;;;;;5047547;28;20381;-73
2022/05/02 10:58:34;;;;;;;;;;;24.90;98.60;;;;;;5048047;28;19933;-74
2022/05/02 11:01:07;;;;;;;;;;;24.40;98.80;;;;;;5051345;28;19935;-75
2022/05/02 11:03:52;;;;;;;;;;;24.30;98.60;;;;;;5052679;28;19932;-74
2022/05/02 11:06:19;;;;;;;;;;;24.20;98.30;;;;;;5051903;28;20132;-75
2022/05/02 11:08:49;;;;;;;;;;;23.20;98.80;;;;;;5052383;28;19925;-75
2022/05/02 11:11:27;;;;;;;;;;;23.10;99.40;;;;;;5053063;28;20008;-75
2022/05/02 11:14:00;;;;;;;;;;;23.30;99.10;;;;;;5050525;28;19924;-74
2022/05/02 11:16:37;;;;;;;;;;;23.60;98.90;;;;;;5049528;28;19931;-75
2022/05/02 11:22:13;;;;;;;;;;;23.70;99.40;;;;;;5052188;28;19929;-74
2022/05/02 11:24:39;;;;;;;;;;;24.10;98.80;;;;;;5050547;28;19967;-71
2022/05/02 11:27:06;;;;;;;;;;;24.10;98.00;;;;;;5050645;28;20391;-72
2022/05/02 11:29:51;;;;;;;;;;;23.80;99.30;;;;;;5051466;28;19925;-74
2022/05/02 11:32:26;;;;;;;;;;;23.90;98.80;;;;;;5050565;28;19947;-71
2022/05/02 11:35:13;;;;;;;;;;;24.30;98.30;;;;;;5050402;28;19925;-74
2022/05/02 11:37:59;;;;;;;;;;;23.90;97.90;;;;;;5048688;28;20367;-73
2022/05/02 11:40:27;;;;;;;;;;;23.50;97.60;;;;;;5047266;28;20009;-73
2022/05/02 11:42:54;;;;;;;;;;;23.10;99.00;;;;;;5051398;28;19944;-72
2022/05/02 11:45:28;;;;;;;;;;;23.10;99.30;;;;;;5047128;28;19925;-73
2022/05/02 11:48:05;;;;;;;;;;;22.70;98.70;;;;;;5055974;28;20003;-74
2022/05/02 11:50:39;;;;;;;;;;;23.40;98.90;;;;;;5059734;28;19928;-75
2022/05/02 11:53:08;;;;;;;;;;;23.60;99.30;;;;;;5050781;28;19925;-76
2022/05/02 11:55:35;;;;;;;;;;;23.80;98.80;;;;;;5052497;28;19987;-74
2022/05/02 11:58:05;;;;;;;;;;;24.30;98.40;;;;;;5051466;28;19944;-74
2022/05/02 12:00:34;;;;;;;;;;;24.50;98.50;;;;;;5047403;28;19952;-74
2022/05/02 12:03:11;;;;;;;;;;;24.70;98.40;;;;;;5049805;28;20429;-74
2022/05/02 12:05:41;;;;;;;;;;;24.40;98.00;;;;;;5044632;28;20020;-74
2022/05/02 12:08:10;;;;;;;;;;;24.30;97.90;;;;;;5045798;28;19978;-75
2022/05/02 12:10:41;;;;;;;;;;;24.70;97.60;;;;;;5049476;28;19925;-74
2022/05/02 12:13:12;;;;;;;;;;;24.50;97.30;;;;;;5045904;28;19925;-73
2022/05/02 12:15:58;;;;;;;;;;;24.10;97.70;;;;;;5045867;28;19974;-74
2022/05/02 12:18:40;;;;;;;;;;;24.50;97.80;;;;;;5048131;28;19925;-72
2022/05/02 12:21:08;;;;;;;;;;;24.10;97.50;;;;;;5065246;28;20137;-72
2022/05/02 12:23:37;;;;;;;;;;;23.90;97.30;;;;;;5038685;28;19967;-72
2022/05/02 12:26:04;;;;;;;;;;;24.10;98.00;;;;;;5040785;28;19939;-71
2022/05/02 12:28:42;;;;;;;;;;;23.70;97.60;;;;;;5039438;28;19939;-67
2022/05/02 12:31:20;;;;;;;;;;;23.30;98.00;;;;;;5036150;28;19964;-66
2022/05/02 12:33:50;;;;;;;;;;;23.00;98.10;;;;;;5042525;28;19938;-64
2022/05/02 12:36:17;;;;;;;;;;;23.10;97.40;;;;;;5043534;28;20024;-65
2022/05/02 12:38:49;;;;;;;;;;;24.00;97.90;;;;;;5040173;28;20048;-64
2022/05/02 12:41:20;;;;;;;;;;;24.40;98.00;;;;;;5076296;28;19931;-66
2022/05/02 12:43:50;;;;;;;;;;;24.30;96.20;;;;;;5041905;28;19932;-66
2022/05/02 12:46:19;;;;;;;;;;;24.60;96.80;;;;;;5042605;28;19935;-65
2022/05/02 12:48:54;;;;;;;;;;;25.20;96.80;;;;;;5042718;28;19932;-65
2022/05/02 12:51:27;;;;;;;;;;;25.50;96.50;;;;;;5041723;28;19973;-66
2022/05/02 12:54:12;;;;;;;;;;;24.80;97.30;;;;;;5044395;28;19931;-64
2022/05/02 13:00:30;;;;;;;;;;;24.40;96.30;;;;;;5045323;28;19933;-62
2022/05/02 13:02:32;;;;;;;;;;;23.50;97.50;;;;;;5043028;28;20032;-64
2022/05/02 13:05:07;;;;;;;;;;;24.00;97.20;;;;;;5046043;28;19952;-66
2022/05/02 13:07:40;;;;;;;;;;;24.50;96.60;;;;;;5044500;28;20446;-64
2022/05/02 13:10:17;;;;;;;;;;;24.90;97.70;;;;;;5043861;28;20019;-64
2022/05/02 13:13:03;;;;;;;;;;;24.50;95.80;;;;;;5040589;28;19939;-63
2022/05/02 13:15:40;;;;;;;;;;;24.40;96.20;;;;;;5050611;28;20015;-63
2022/05/02 13:18:14;;;;;;;;;;;24.10;96.70;;;;;;5041272;28;19933;-63
2022/05/02 13:21:09;;;;;;;;;;;23.70;97.20;;;;;;5037849;28;19928;-64
2022/05/02 13:23:44;;;;;;;;;;;23.10;96.90;;;;;;5042948;28;19931;-63
2022/05/02 13:26:11;;;;;;;;;;;23.50;97.20;;;;;;5043271;28;19957;-63
2022/05/02 13:29:00;;;;;;;;;;;23.70;97.60;;;;;;5042687;28;19968;-63
2022/05/02 13:31:39;;;;;;;;;;;23.50;96.90;;;;;;5042669;28;19932;-62
2022/05/02 13:34:10;;;;;;;;;;;23.20;97.50;;;;;;5041762;28;19932;-63
2022/05/02 13:36:41;;;;;;;;;;;23.60;97.30;;;;;;5045562;28;19972;-63
2022/05/02 13:39:31;;;;;;;;;;;24.20;97.70;;;;;;5075106;28;19929;-64
2022/05/02 13:42:06;;;;;;;;;;;24.90;96.90;;;;;;5040182;28;20296;-63
2022/05/02 13:44:45;;;;;;;;;;;25.50;96.10;;;;;;5043434;28;19925;-65
2022/05/02 13:47:18;;;;;;;;;;;25.60;96.40;;;;;;5042916;28;19982;-64
2022/05/02 13:50:14;;;;;;;;;;;25.30;95.50;;;;;;5037076;28;19929;-63
2022/05/02 13:52:59;;;;;;;;;;;25.00;96.60;;;;;;5032396;28;20459;-63
2022/05/02 13:55:46;;;;;;;;;;;24.90;95.70;;;;;;5034857;28;19932;-64
2022/05/02 13:58:31;;;;;;;;;;;24.00;95.70;;;;;;5047752;28;19925;-63
2022/05/02 14:01:50;;;;;;;;;;;24.00;96.20;;;;;;5049367;28;20023;-62
2022/05/02 14:03:57;;;;;;;;;;;24.20;96.80;;;;;;5038096;28;20387;-61
2022/05/02 14:06:29;;;;;;;;;;;24.10;96.50;;;;;;5047638;28;19936;-61
2022/05/02 14:08:57;;;;;;;;;;;23.90;96.80;;;;;;5048574;28;20976;-61
2022/05/02 14:11:27;;;;;;;;;;;23.90;96.80;;;;;;5048851;28;19989;-61
2022/05/02 14:14:04;;;;;;;;;;;24.00;96.70;;;;;;5046187;28;19929;-62
2022/05/02 14:16:31;;;;;;;;;;;24.00;97.00;;;;;;5047899;28;19932;-61
2022/05/02 14:18:58;;;;;;;;;;;23.80;96.90;;;;;;5048097;28;19925;-62
2022/05/02 14:21:26;;;;;;;;;;;23.50;97.40;;;;;;5045542;28;20019;-62
2022/05/02 14:23:54;;;;;;;;;;;23.30;97.30;;;;;;5046527;28;19939;-61
2022/05/02 14:26:21;;;;;;;;;;;23.20;97.60;;;;;;5047963;28;19933;-62
2022/05/02 14:28:52;;;;;;;;;;;23.30;97.40;;;;;;5049618;28;20368;-62
2022/05/02 14:31:21;;;;;;;;;;;23.40;97.40;;;;;;5037776;28;20326;-62
2022/05/02 14:33:52;;;;;;;;;;;23.70;97.30;;;;;;5049582;28;19932;-62
2022/05/02 14:36:19;;;;;;;;;;;23.40;97.80;;;;;;5046982;28;19929;-62
2022/05/02 14:38:46;;;;;;;;;;;23.10;97.50;;;;;;5044486;28;19939;-62
2022/05/02 14:41:13;;;;;;;;;;;23.20;97.60;;;;;;5074661;28;19937;-61
2022/05/02 14:43:40;;;;;;;;;;;23.40;97.50;;;;;;5037358;28;19932;-62
2022/05/02 14:46:06;;;;;;;;;;;23.60;97.30;;;;;;5041979;28;19929;-61
2022/05/02 14:48:34;;;;;;;;;;;23.70;97.20;;;;;;5041272;28;19929;-61
2022/05/02 14:51:05;;;;;;;;;;;23.20;97.30;;;;;;5045621;28;20423;-62
2022/05/02 14:53:39;;;;;;;;;;;23.10;97.40;;;;;;5041648;28;19928;-62
2022/05/02 14:56:12;;;;;;;;;;;23.20;96.90;;;;;;5047391;28;19945;-62
2022/05/02 14:58:40;;;;;;;;;;;23.50;96.60;;;;;;5047367;28;20003;-62
2022/05/02 15:01:16;;;;;;;;;;;23.60;96.60;;;;;;5046048;28;19929;-62
2022/05/02 15:03:47;;;;;;;;;;;23.30;95.80;;;;;;5047363;28;19925;-62
2022/05/02 15:06:24;;;;;;;;;;;23.90;95.90;;;;;;5046818;28;19968;-61
2022/05/02 15:09:09;;;;;;;;;;;24.10;95.80;;;;;;5046578;28;19947;-61
2022/05/02 15:11:55;;;;;;;;;;;24.10;97.00;;;;;;5048675;28;19925;-61
2022/05/02 15:14:46;;;;;;;;;;;23.70;95.80;;;;;;5043732;28;20363;-61
2022/05/02 15:17:19;;;;;;;;;;;23.60;96.20;;;;;;5046127;28;20383;-61